Time;durP1;ratioP1;P1;durP2;ratioP2;P2;SDS_P1;SDS_P2;PMS_P1;PMS_P2;Temp;Humidity;BMP_temperature;BMP_pressure;BME280_temperature;BME280_humidity;BME280_pressure;Samples;Min_cycle;Max_cycle;Signal;HPM_P1;HPM_P2
2022/08/24 00:01:57;;;;;;;;;;;;;;;;;;5084683;28;20314;-81
2022/08/24 00:04:22;;;;;;;;;;;;;;;;;;5100932;28;19916;-81
2022/08/24 00:06:48;;;;;;;;;;;;;;;;;;5119272;28;19923;-82
2022/08/24 00:09:14;;;;;;;;;;;;;;;;;;5100951;28;19916;-82
2022/08/24 00:11:39;;;;;;;;;;;;;;;;;;5119263;28;20006;-82
2022/08/24 00:14:04;;;;;;;;;;;;;;;;;;5118795;28;19989;-82
2022/08/24 00:16:30;;;;;;;;;;;;;;;;;;5100781;28;19919;-81
2022/08/24 00:18:55;;;;;;;;;;;;;;;;;;5118686;28;19927;-82
2022/08/24 00:21:20;;;;;;;;;;;;;;;;;;5118922;28;19922;-82
2022/08/24 00:23:48;;;;;;;;;;;;;;;;;;5084017;28;19995;-82
2022/08/24 00:26:14;;;;;;;;;;;;;;;;;;5100785;28;20326;-81
2022/08/24 00:28:39;;;;;;;;;;;;;;;;;;5100639;28;20007;-83
2022/08/24 00:31:05;;;;;;;;;;;;;;;;;;5100743;28;19923;-82
2022/08/24 00:33:31;;;;;;;;;;;;;;;;;;5100554;28;20407;-81
2022/08/24 00:35:56;;;;;;;;;;;;;;;;;;5100534;28;19965;-82
2022/08/24 00:38:22;;;;;;;;;;;;;;;;;;5119152;28;19916;-83
2022/08/24 00:40:48;;;;;;;;;;;;;;;;;;5118538;28;19924;-83
2022/08/24 00:43:16;;;;;;;;;;;;;;;;;;5083605;28;19916;-82
2022/08/24 00:45:56;;;;;;;;;;;;;;;;;;5100243;28;20625;-82
2022/08/24 00:48:23;;;;;;;;;;;;;;;;;;5099997;28;19916;-82
2022/08/24 00:51:06;;;;;;;;;;;;;;;;;;5100364;28;19965;-82
2022/08/24 00:53:33;;;;;;;;;;;;;;;;;;5099895;28;19944;-82
2022/08/24 00:56:00;;;;;;;;;;;;;;;;;;5099885;28;19919;-82
2022/08/24 00:58:30;;;;;;;;;;;;;;;;;;5100031;28;19916;-82
2022/08/24 01:00:57;;;;;;;;;;;;;;;;;;5099823;28;19920;-81
2022/08/24 01:03:22;;;;;;;;;;;;;;;;;;5099725;28;19916;-81
2022/08/24 01:05:47;;;;;;;;;;;;;;;;;;5099870;28;19916;-82
2022/08/24 01:08:13;;;;;;;;;;;;;;;;;;5118039;28;19997;-82
2022/08/24 01:10:39;;;;;;;;;;;;;;;;;;5099476;28;19955;-81
2022/08/24 01:13:05;;;;;;;;;;;;;;;;;;5099770;28;19937;-82
2022/08/24 01:15:35;;;;;;;;;;;;;;;;;;5082612;28;19999;-81
2022/08/24 01:20:45;;;;;;;;;;;;;;;;;;5102351;28;19964;-82
2022/08/24 01:23:16;;;;;;;;;;;;;;;;;;5099513;28;19916;-82
2022/08/24 01:25:42;;;;;;;;;;;;;;;;;;5081993;28;20356;-82
2022/08/24 01:28:08;;;;;;;;;;;;;;;;;;5099310;28;19917;-81
2022/08/24 01:30:34;;;;;;;;;;;;;;;;;;5117582;28;19942;-81
2022/08/24 01:33:04;;;;;;;;;;;;;;;;;;5099141;28;19920;-82
2022/08/24 01:35:30;;;;;;;;;;;;;;;;;;5082362;28;20285;-81
2022/08/24 01:37:56;;;;;;;;;;;;;;;;;;5099153;28;19920;-82
2022/08/24 01:40:22;;;;;;;;;;;;;;;;;;5099198;28;19954;-82
2022/08/24 01:42:48;;;;;;;;;;;;;;;;;;5099373;28;19916;-82
2022/08/24 01:45:14;;;;;;;;;;;;;;;;;;5099014;28;19923;-82
2022/08/24 01:47:39;;;;;;;;;;;;;;;;;;5116975;28;19916;-82
2022/08/24 01:50:05;;;;;;;;;;;;;;;;;;5098960;28;19916;-81
2022/08/24 01:52:30;;;;;;;;;;;;;;;;;;5081990;28;19950;-82
2022/08/24 01:54:55;;;;;;;;;;;;;;;;;;5098973;28;19945;-82
2022/08/24 01:57:23;;;;;;;;;;;;;;;;;;5117037;28;20006;-82
2022/08/24 01:59:48;;;;;;;;;;;;;;;;;;5098790;28;19969;-83
2022/08/24 02:02:18;;;;;;;;;;;;;;;;;;5081646;28;20301;-81
2022/08/24 02:04:43;;;;;;;;;;;;;;;;;;5116830;28;19916;-81
2022/08/24 02:07:09;;;;;;;;;;;;;;;;;;5098602;28;19923;-82
2022/08/24 02:09:35;;;;;;;;;;;;;;;;;;5116845;28;20010;-82
2022/08/24 02:12:01;;;;;;;;;;;;;;;;;;5116767;28;20027;-81
2022/08/24 02:14:27;;;;;;;;;;;;;;;;;;5098597;28;19916;-83
2022/08/24 02:16:52;;;;;;;;;;;;;;;;;;5116377;28;19972;-83
2022/08/24 02:19:17;;;;;;;;;;;;;;;;;;5098316;28;20283;-82
2022/08/24 02:21:43;;;;;;;;;;;;;;;;;;5097372;28;20006;-82
2022/08/24 02:24:08;;;;;;;;;;;;;;;;;;5098148;28;19915;-82
2022/08/24 02:26:33;;;;;;;;;;;;;;;;;;5116453;28;19916;-82
2022/08/24 02:28:59;;;;;;;;;;;;;;;;;;5081489;28;19919;-82
2022/08/24 02:31:24;;;;;;;;;;;;;;;;;;5097871;28;19919;-81
2022/08/24 02:33:49;;;;;;;;;;;;;;;;;;5098455;28;19980;-81
2022/08/24 02:36:15;;;;;;;;;;;;;;;;;;5081614;28;19915;-82
2022/08/24 02:38:41;;;;;;;;;;;;;;;;;;5098182;28;20334;-83
2022/08/24 02:41:10;;;;;;;;;;;;;;;;;;5116183;28;19923;-83
2022/08/24 02:43:35;;;;;;;;;;;;;;;;;;5081222;28;19915;-83
2022/08/24 02:46:00;;;;;;;;;;;;;;;;;;5097946;28;19915;-82
2022/08/24 02:48:26;;;;;;;;;;;;;;;;;;5116052;28;20019;-82
2022/08/24 02:50:51;;;;;;;;;;;;;;;;;;5116060;28;19998;-82
2022/08/24 02:53:17;;;;;;;;;;;;;;;;;;5098196;28;19916;-82
2022/08/24 02:55:42;;;;;;;;;;;;;;;;;;5116290;28;20242;-81
2022/08/24 02:58:08;;;;;;;;;;;;;;;;;;5097894;28;19912;-82
2022/08/24 03:00:35;;;;;;;;;;;;;;;;;;5097261;28;20256;-81
2022/08/24 03:03:00;;;;;;;;;;;;;;;;;;5116063;28;20321;-82
2022/08/24 03:05:25;;;;;;;;;;;;;;;;;;5116208;28;19922;-81
2022/08/24 03:07:51;;;;;;;;;;;;;;;;;;5116060;28;19927;-82
2022/08/24 03:10:17;;;;;;;;;;;;;;;;;;5115815;28;19947;-82
2022/08/24 03:12:43;;;;;;;;;;;;;;;;;;5097626;28;19916;-82
2022/08/24 03:15:09;;;;;;;;;;;;;;;;;;5097336;28;19916;-81
2022/08/24 03:17:35;;;;;;;;;;;;;;;;;;5115757;28;19962;-82
2022/08/24 03:20:00;;;;;;;;;;;;;;;;;;5115765;28;19915;-82
2022/08/24 03:22:25;;;;;;;;;;;;;;;;;;5097530;28;20409;-82
2022/08/24 03:24:51;;;;;;;;;;;;;;;;;;5097501;28;20313;-82
2022/08/24 03:27:16;;;;;;;;;;;;;;;;;;5097080;28;19923;-83
2022/08/24 03:29:42;;;;;;;;;;;;;;;;;;5115041;28;20257;-82
2022/08/24 03:32:07;;;;;;;;;;;;;;;;;;5096898;28;19947;-81
2022/08/24 03:34:32;;;;;;;;;;;;;;;;;;5080067;28;19915;-81
2022/08/24 03:36:57;;;;;;;;;;;;;;;;;;5097096;28;19919;-81
2022/08/24 03:39:23;;;;;;;;;;;;;;;;;;5097203;28;19922;-82
2022/08/24 03:41:48;;;;;;;;;;;;;;;;;;5115199;28;20010;-83
2022/08/24 03:44:13;;;;;;;;;;;;;;;;;;5096544;28;20032;-83
2022/08/24 03:46:39;;;;;;;;;;;;;;;;;;5096995;28;19915;-82
2022/08/24 03:49:07;;;;;;;;;;;;;;;;;;5096916;28;19978;-83
2022/08/24 03:51:32;;;;;;;;;;;;;;;;;;5080402;28;20245;-82
2022/08/24 03:53:58;;;;;;;;;;;;;;;;;;5115109;28;19916;-82
2022/08/24 03:56:23;;;;;;;;;;;;;;;;;;5079999;28;19915;-81
2022/08/24 03:58:49;;;;;;;;;;;;;;;;;;5097266;28;20350;-82
2022/08/24 04:01:15;;;;;;;;;;;;;;;;;;5079978;28;19985;-82
2022/08/24 04:03:42;;;;;;;;;;;;;;;;;;5114983;28;20346;-83
2022/08/24 04:06:07;;;;;;;;;;;;;;;;;;5114784;28;20026;-82
2022/08/24 04:08:33;;;;;;;;;;;;;;;;;;5097057;28;20341;-82
2022/08/24 04:10:58;;;;;;;;;;;;;;;;;;5114746;28;20296;-83
2022/08/24 04:13:24;;;;;;;;;;;;;;;;;;5114890;28;19922;-82
2022/08/24 04:15:51;;;;;;;;;;;;;;;;;;5114805;28;19923;-82
2022/08/24 04:18:17;;;;;;;;;;;;;;;;;;5096875;28;19916;-80
2022/08/24 04:20:42;;;;;;;;;;;;;;;;;;5096720;28;19922;-82
2022/08/24 04:23:08;;;;;;;;;;;;;;;;;;5096608;28;20295;-82
2022/08/24 04:25:43;;;;;;;;;;;;;;;;;;5096387;28;19923;-82
2022/08/24 04:28:09;;;;;;;;;;;;;;;;;;5096612;28;19916;-82
2022/08/24 04:30:34;;;;;;;;;;;;;;;;;;5096812;28;20053;-82
2022/08/24 04:33:00;;;;;;;;;;;;;;;;;;5096448;28;19925;-82
2022/08/24 04:35:25;;;;;;;;;;;;;;;;;;5096653;28;20298;-82
2022/08/24 04:37:50;;;;;;;;;;;;;;;;;;5097622;28;19923;-81
2022/08/24 04:40:16;;;;;;;;;;;;;;;;;;5115324;28;19923;-81
2022/08/24 04:42:41;;;;;;;;;;;;;;;;;;5119091;28;19916;-82
2022/08/24 04:45:07;;;;;;;;;;;;;;;;;;5101530;28;19947;-82
2022/08/24 04:47:32;;;;;;;;;;;;;;;;;;5103111;28;19958;-82
2022/08/24 04:49:57;;;;;;;;;;;;;;;;;;5103540;28;20300;-82
2022/08/24 04:52:23;;;;;;;;;;;;;;;;;;5122015;28;19939;-82
2022/08/24 04:54:48;;;;;;;;;;;;;;;;;;5114207;28;19941;-82
2022/08/24 04:57:13;;;;;;;;;;;;;;;;;;5122918;28;19920;-82
2022/08/24 04:59:40;;;;;;;;;;;;;;;;;;5116933;28;19934;-82
2022/08/24 05:02:05;;;;;;;;;;;;;;;;;;5139473;28;19988;-82
2022/08/24 05:04:30;;;;;;;;;;;;;;;;;;5105491;28;19920;-83
2022/08/24 05:06:56;;;;;;;;;;;;;;;;;;5084225;28;19916;-82
2022/08/24 05:09:21;;;;;;;;;;;;;;;;;;5082963;28;20052;-82
2022/08/24 05:11:46;;;;;;;;;;;;;;;;;;5099867;28;20266;-82
2022/08/24 05:14:12;;;;;;;;;;;;;;;;;;5099786;28;20010;-82
2022/08/24 05:16:37;;;;;;;;;;;;;;;;;;5117949;28;19916;-82
2022/08/24 05:19:03;;;;;;;;;;;;;;;;;;5117841;28;19920;-82
2022/08/24 05:21:29;;;;;;;;;;;;;;;;;;5099604;28;19922;-82
2022/08/24 05:23:55;;;;;;;;;;;;;;;;;;5082859;28;19915;-82
2022/08/24 05:26:24;;;;;;;;;;;;;;;;;;5099770;28;20003;-82
2022/08/24 05:28:52;;;;;;;;;;;;;;;;;;5100110;28;20007;-82
2022/08/24 05:31:18;;;;;;;;;;;;;;;;;;5117594;28;19912;-82
2022/08/24 05:33:43;;;;;;;;;;;;;;;;;;5099407;28;19919;-82
2022/08/24 05:36:23;;;;;;;;;;;;;;;;;;5117497;28;19920;-83
2022/08/24 05:38:48;;;;;;;;;;;;;;;;;;5098898;28;19915;-82
2022/08/24 05:41:14;;;;;;;;;;;;;;;;;;5082659;28;19916;-83
2022/08/24 05:43:39;;;;;;;;;;;;;;;;;;5082400;28;19915;-82
2022/08/24 05:46:05;;;;;;;;;;;;;;;;;;5099126;28;19916;-82
2022/08/24 05:48:30;;;;;;;;;;;;;;;;;;5117177;28;19948;-82
2022/08/24 05:50:56;;;;;;;;;;;;;;;;;;5098969;28;19923;-82
2022/08/24 05:53:21;;;;;;;;;;;;;;;;;;5099069;28;19938;-81
2022/08/24 05:55:46;;;;;;;;;;;;;;;;;;5098801;28;19919;-82
2022/08/24 05:58:12;;;;;;;;;;;;;;;;;;5082108;28;19916;-82
2022/08/24 06:00:37;;;;;;;;;;;;;;;;;;5117065;28;20026;-82
2022/08/24 06:03:03;;;;;;;;;;;;;;;;;;5098878;28;19916;-82
2022/08/24 06:05:28;;;;;;;;;;;;;;;;;;5098603;28;19923;-82
2022/08/24 06:07:54;;;;;;;;;;;;;;;;;;5098402;28;19919;-81
2022/08/24 06:10:19;;;;;;;;;;;;;;;;;;5098816;28;19998;-82
2022/08/24 06:12:45;;;;;;;;;;;;;;;;;;5098630;28;19916;-82
2022/08/24 06:15:12;;;;;;;;;;;;;;;;;;5098338;28;19916;-79
2022/08/24 06:17:37;;;;;;;;;;;;;;;;;;5116585;28;19954;-79
2022/08/24 06:20:03;;;;;;;;;;;;;;;;;;5098263;28;19943;-80
2022/08/24 06:22:28;;;;;;;;;;;;;;;;;;5098029;28;20323;-81
2022/08/24 06:27:37;;;;;;;;;;;;;;;;;;5116630;28;20276;-81
2022/08/24 06:30:04;;;;;;;;;;;;;;;;;;5098200;28;19916;-80
2022/08/24 06:32:30;;;;;;;;;;;;;;;;;;5098068;28;20467;-82
2022/08/24 06:34:55;;;;;;;;;;;;;;;;;;5116180;28;19959;-81
2022/08/24 06:37:25;;;;;;;;;;;;;;;;;;5080980;28;20018;-82
2022/08/24 06:39:51;;;;;;;;;;;;;;;;;;5098142;28;19915;-81
2022/08/24 06:42:16;;;;;;;;;;;;;;;;;;5098244;28;19965;-80
2022/08/24 06:44:41;;;;;;;;;;;;;;;;;;5098169;28;19916;-82
2022/08/24 06:47:07;;;;;;;;;;;;;;;;;;5097768;28;19916;-84
2022/08/24 06:49:32;;;;;;;;;;;;;;;;;;5081104;28;19965;-79
2022/08/24 06:51:57;;;;;;;;;;;;;;;;;;5080596;28;19980;-79
2022/08/24 06:54:23;;;;;;;;;;;;;;;;;;5097599;28;19983;-80
2022/08/24 06:56:48;;;;;;;;;;;;;;;;;;5115250;28;19916;-79
2022/08/24 06:59:13;;;;;;;;;;;;;;;;;;5080288;28;19916;-79
2022/08/24 07:01:39;;;;;;;;;;;;;;;;;;5115311;28;19930;-80
2022/08/24 07:04:04;;;;;;;;;;;;;;;;;;5115299;28;19924;-78
2022/08/24 07:06:29;;;;;;;;;;;;;;;;;;5095136;28;19927;-79
2022/08/24 07:08:55;;;;;;;;;;;;;;;;;;5113855;28;19938;-78
2022/08/24 07:11:21;;;;;;;;;;;;;;;;;;5114424;28;20249;-79
2022/08/24 07:13:46;;;;;;;;;;;;;;;;;;5096542;28;19916;-79
2022/08/24 07:16:12;;;;;;;;;;;;;;;;;;5080604;28;20356;-80
2022/08/24 07:18:38;;;;;;;;;;;;;;;;;;5114210;28;20451;-78
2022/08/24 07:21:03;;;;;;;;;;;;;;;;;;5095585;28;20283;-79
2022/08/24 07:23:28;;;;;;;;;;;;;;;;;;5096093;28;19961;-79
2022/08/24 07:25:54;;;;;;;;;;;;;;;;;;5113950;28;19923;-78
2022/08/24 07:28:19;;;;;;;;;;;;;;;;;;5113632;28;19962;-77
2022/08/24 07:30:45;;;;;;;;;;;;;;;;;;5078373;28;19920;-77
2022/08/24 07:33:11;;;;;;;;;;;;;;;;;;5078856;28;20011;-78
2022/08/24 07:35:36;;;;;;;;;;;;;;;;;;5114576;28;19916;-77
2022/08/24 07:38:01;;;;;;;;;;;;;;;;;;5115460;28;20307;-78
2022/08/24 07:40:27;;;;;;;;;;;;;;;;;;5096760;28;20333;-77
2022/08/24 07:42:53;;;;;;;;;;;;;;;;;;5096800;28;20329;-78
2022/08/24 07:45:18;;;;;;;;;;;;;;;;;;5080109;28;19920;-78
2022/08/24 07:47:44;;;;;;;;;;;;;;;;;;5096505;28;19916;-77
2022/08/24 07:50:10;;;;;;;;;;;;;;;;;;5097086;28;19951;-78
2022/08/24 07:52:35;;;;;;;;;;;;;;;;;;5079685;28;19915;-77
2022/08/24 07:55:01;;;;;;;;;;;;;;;;;;5114744;28;19916;-78
2022/08/24 07:57:26;;;;;;;;;;;;;;;;;;5114683;28;19922;-78
2022/08/24 07:59:51;;;;;;;;;;;;;;;;;;5096688;28;19920;-77
2022/08/24 08:02:17;;;;;;;;;;;;;;;;;;5096398;28;19951;-79
2022/08/24 08:04:42;;;;;;;;;;;;;;;;;;5096441;28;19916;-78
2022/08/24 08:07:08;;;;;;;;;;;;;;;;;;5115069;28;19962;-76
2022/08/24 08:09:35;;;;;;;;;;;;;;;;;;5114608;28;19915;-77
2022/08/24 08:12:00;;;;;;;;;;;;;;;;;;5114826;28;19916;-78
2022/08/24 08:14:26;;;;;;;;;;;;;;;;;;5114759;28;19994;-78
2022/08/24 08:16:52;;;;;;;;;;;;;;;;;;5114678;28;19916;-78
2022/08/24 08:19:17;;;;;;;;;;;;;;;;;;5115815;28;20299;-78
2022/08/24 08:24:27;;;;;;;;;;;;;;;;;;5103269;28;19922;-77
2022/08/24 08:26:53;;;;;;;;;;;;;;;;;;5083497;28;19916;-78
2022/08/24 08:29:18;;;;;;;;;;;;;;;;;;5100587;28;19969;-77
2022/08/24 08:31:44;;;;;;;;;;;;;;;;;;5100585;28;19916;-78
2022/08/24 08:34:11;;;;;;;;;;;;;;;;;;5100141;28;20325;-76
2022/08/24 08:36:40;;;;;;;;;;;;;;;;;;5083419;28;19916;-77
2022/08/24 08:39:08;;;;;;;;;;;;;;;;;;5118798;28;20330;-77
2022/08/24 08:41:41;;;;;;;;;;;;;;;;;;5118674;28;19938;-78
2022/08/24 08:44:15;;;;;;;;;;;;;;;;;;5118684;28;20325;-76
2022/08/24 08:46:44;;;;;;;;;;;;;;;;;;5099725;28;19920;-76
2022/08/24 08:49:28;;;;;;;;;;;;;;;;;;5118363;28;19922;-76
2022/08/24 08:52:08;;;;;;;;;;;;;;;;;;5118291;28;19976;-75
2022/08/24 08:54:37;;;;;;;;;;;;;;;;;;5100063;28;19915;-78
2022/08/24 08:57:18;;;;;;;;;;;;;;;;;;5100409;28;19996;-78
2022/08/24 09:00:03;;;;;;;;;;;;;;;;;;5117739;28;19920;-78
2022/08/24 09:02:38;;;;;;;;;;;;;;;;;;5117710;28;20010;-77
2022/08/24 09:05:12;;;;;;;;;;;;;;;;;;5117973;28;20240;-78
2022/08/24 09:07:42;;;;;;;;;;;;;;;;;;5117892;28;19978;-78
2022/08/24 09:10:16;;;;;;;;;;;;;;;;;;5117651;28;19915;-77
2022/08/24 09:12:42;;;;;;;;;;;;;;;;;;5117832;28;19922;-78
2022/08/24 09:15:26;;;;;;;;;;;;;;;;;;5118544;28;20241;-76
2022/08/24 09:17:52;;;;;;;;;;;;;;;;;;5099304;28;19916;-77
2022/08/24 09:20:23;;;;;;;;;;;;;;;;;;5117914;28;19916;-77
2022/08/24 09:22:53;;;;;;;;;;;;;;;;;;5099258;28;20249;-79
2022/08/24 09:25:22;;;;;;;;;;;;;;;;;;5082278;28;19981;-76
2022/08/24 09:28:11;;;;;;;;;;;;;;;;;;5099542;28;20367;-77
2022/08/24 09:30:47;;;;;;;;;;;;;;;;;;5103045;28;20003;-78
2022/08/24 09:33:16;;;;;;;;;;;;;;;;;;5099745;28;20053;-77
2022/08/24 09:36:00;;;;;;;;;;;;;;;;;;5118341;28;19915;-77
2022/08/24 09:38:49;;;;;;;;;;;;;;;;;;5117512;28;19949;-77
2022/08/24 09:41:20;;;;;;;;;;;;;;;;;;5099537;28;19915;-77
2022/08/24 09:43:55;;;;;;;;;;;;;;;;;;5117291;28;20040;-77
2022/08/24 09:46:20;;;;;;;;;;;;;;;;;;5098865;28;20340;-78
2022/08/24 09:48:45;;;;;;;;;;;;;;;;;;5098802;28;19916;-77
2022/08/24 09:51:13;;;;;;;;;;;;;;;;;;5098801;28;19951;-77
2022/08/24 09:53:59;;;;;;;;;;;;;;;;;;5117024;28;20010;-77
2022/08/24 09:56:32;;;;;;;;;;;;;;;;;;5065332;28;20229;-77
2022/08/24 09:59:01;;;;;;;;;;;;;;;;;;5098284;28;19915;-77
2022/08/24 10:01:26;;;;;;;;;;;;;;;;;;5116841;28;19919;-78
2022/08/24 10:03:54;;;;;;;;;;;;;;;;;;5116867;28;19923;-78
2022/08/24 10:06:23;;;;;;;;;;;;;;;;;;5116694;28;19923;-77
2022/08/24 10:08:53;;;;;;;;;;;;;;;;;;5116835;28;19923;-78
2022/08/24 10:11:37;;;;;;;;;;;;;;;;;;5098683;28;20301;-77
2022/08/24 10:14:17;;;;;;;;;;;;;;;;;;5116394;28;19955;-77
2022/08/24 10:17:21;;;;;;;;;;;;;;;;;;5116797;28;19923;-77
2022/08/24 10:19:53;;;;;;;;;;;;;;;;;;5013998;28;19918;-78
2022/08/24 10:22:24;;;;;;;;;;;;;;;;;;5014132;28;19918;-77
2022/08/24 10:25:01;;;;;;;;;;;;;;;;;;5069406;28;20248;-78
2022/08/24 10:27:42;;;;;;;;;;;;;;;;;;5116469;28;19966;-78
2022/08/24 10:30:10;;;;;;;;;;;;;;;;;;5098060;28;19959;-78
2022/08/24 10:32:51;;;;;;;;;;;;;;;;;;5116354;28;19916;-77
2022/08/24 10:35:18;;;;;;;;;;;;;;;;;;5098271;28;19962;-79
2022/08/24 10:41:12;;;;;;;;;;;;;;;;;;5116148;28;20005;-77
2022/08/24 10:43:41;;;;;;;;;;;;;;;;;;5115331;28;19916;-76
2022/08/24 10:46:25;;;;;;;;;;;;;;;;;;5116078;28;19916;-76
2022/08/24 10:48:51;;;;;;;;;;;;;;;;;;5097610;28;19916;-75
2022/08/24 10:51:28;;;;;;;;;;;;;;;;;;5115641;28;19916;-82
2022/08/24 10:53:53;;;;;;;;;;;;;;;;;;5115802;28;19916;-80
2022/08/24 10:56:38;;;;;;;;;;;;;;;;;;5080827;28;19938;-83
2022/08/24 10:59:11;;;;;;;;;;;;;;;;;;5115772;28;19916;-81
2022/08/24 11:01:37;;;;;;;;;;;;;;;;;;5097598;28;19920;-82
2022/08/24 11:04:05;;;;;;;;;;;;;;;;;;5097487;28;19923;-81
2022/08/24 11:06:55;;;;;;;;;;;;;;;;;;5097382;28;19988;-82
2022/08/24 11:09:20;;;;;;;;;;;;;;;;;;5098556;28;19916;-82
2022/08/24 11:11:46;;;;;;;;;;;;;;;;;;5083949;28;20283;-81
2022/08/24 11:14:14;;;;;;;;;;;;;;;;;;5097421;28;19923;-82
2022/08/24 11:16:41;;;;;;;;;;;;;;;;;;5115634;28;19916;-82
2022/08/24 11:19:11;;;;;;;;;;;;;;;;;;5097480;28;19951;-82
2022/08/24 11:21:37;;;;;;;;;;;;;;;;;;5115568;28;19951;-81
2022/08/24 11:24:04;;;;;;;;;;;;;;;;;;5115423;28;19923;-82
2022/08/24 11:26:29;;;;;;;;;;;;;;;;;;5080202;28;20230;-82
2022/08/24 11:28:59;;;;;;;;;;;;;;;;;;5097667;28;19923;-82
2022/08/24 11:31:30;;;;;;;;;;;;;;;;;;5080608;28;20374;-81
2022/08/24 11:34:00;;;;;;;;;;;;;;;;;;5097123;28;19915;-80
2022/08/24 11:36:26;;;;;;;;;;;;;;;;;;5080490;28;19916;-81
2022/08/24 11:39:10;;;;;;;;;;;;;;;;;;5097033;28;19954;-81
2022/08/24 11:41:40;;;;;;;;;;;;;;;;;;5115396;28;19959;-82
2022/08/24 11:44:35;;;;;;;;;;;;;;;;;;5080638;28;20010;-82
2022/08/24 11:47:03;;;;;;;;;;;;;;;;;;5092989;28;19973;-81
2022/08/24 11:49:37;;;;;;;;;;;;;;;;;;5096998;28;19920;-81
2022/08/24 11:52:10;;;;;;;;;;;;;;;;;;5115045;28;19962;-82
2022/08/24 11:54:42;;;;;;;;;;;;;;;;;;5096730;28;19935;-82
2022/08/24 11:57:08;;;;;;;;;;;;;;;;;;5114831;28;19923;-81
2022/08/24 11:59:52;;;;;;;;;;;;;;;;;;5114958;28;19923;-81
2022/08/24 12:02:37;;;;;;;;;;;;;;;;;;5115093;28;19916;-81
2022/08/24 12:05:07;;;;;;;;;;;;;;;;;;5062983;28;20009;-80
2022/08/24 12:07:51;;;;;;;;;;;;;;;;;;5097256;28;19951;-82
2022/08/24 12:10:35;;;;;;;;;;;;;;;;;;5096697;28;19920;-81
2022/08/24 12:13:19;;;;;;;;;;;;;;;;;;5097482;28;19915;-81
2022/08/24 12:15:46;;;;;;;;;;;;;;;;;;5115625;28;19965;-82
2022/08/24 12:18:27;;;;;;;;;;;;;;;;;;5115030;28;19939;-83
2022/08/24 12:20:52;;;;;;;;;;;;;;;;;;5096445;28;19920;-81
2022/08/24 12:23:18;;;;;;;;;;;;;;;;;;5096922;28;19922;-81
2022/08/24 12:26:02;;;;;;;;;;;;;;;;;;5114476;28;19923;-81
2022/08/24 12:28:47;;;;;;;;;;;;;;;;;;5114959;28;20085;-81
2022/08/24 12:31:33;;;;;;;;;;;;;;;;;;5079920;28;19915;-82
2022/08/24 12:33:58;;;;;;;;;;;;;;;;;;5095946;28;19915;-80
2022/08/24 12:36:30;;;;;;;;;;;;;;;;;;5096351;28;20006;-82
2022/08/24 12:39:04;;;;;;;;;;;;;;;;;;5096416;28;19916;-81
2022/08/24 12:41:31;;;;;;;;;;;;;;;;;;5080101;28;20401;-81
2022/08/24 12:44:12;;;;;;;;;;;;;;;;;;5079996;28;20317;-82
2022/08/24 12:46:38;;;;;;;;;;;;;;;;;;5079652;28;19956;-81
2022/08/24 12:49:14;;;;;;;;;;;;;;;;;;5096800;28;19996;-81
2022/08/24 12:51:46;;;;;;;;;;;;;;;;;;5096310;28;20294;-82
2022/08/24 12:54:30;;;;;;;;;;;;;;;;;;5096588;28;20305;-81
2022/08/24 12:57:10;;;;;;;;;;;;;;;;;;5096494;28;19916;-81
2022/08/24 12:59:41;;;;;;;;;;;;;;;;;;5114305;28;19916;-81
2022/08/24 13:02:17;;;;;;;;;;;;;;;;;;5113824;28;20296;-82
2022/08/24 13:04:48;;;;;;;;;;;;;;;;;;5114540;28;19923;-81
2022/08/24 13:07:17;;;;;;;;;;;;;;;;;;5099830;28;19916;-82
2022/08/24 13:09:52;;;;;;;;;;;;;;;;;;5099412;28;19973;-81
2022/08/24 13:12:29;;;;;;;;;;;;;;;;;;5117646;28;19922;-82
2022/08/24 13:15:13;;;;;;;;;;;;;;;;;;5117597;28;19973;-82
2022/08/24 13:17:39;;;;;;;;;;;;;;;;;;5117633;28;19916;-81
2022/08/24 13:20:19;;;;;;;;;;;;;;;;;;5099397;28;19923;-81
2022/08/24 13:22:46;;;;;;;;;;;;;;;;;;5099432;28;19915;-80
2022/08/24 13:25:20;;;;;;;;;;;;;;;;;;5099384;28;19923;-81
2022/08/24 13:27:46;;;;;;;;;;;;;;;;;;5082466;28;20002;-82
2022/08/24 13:30:17;;;;;;;;;;;;;;;;;;5099199;28;19922;-81
2022/08/24 13:32:44;;;;;;;;;;;;;;;;;;5099082;28;19916;-82
2022/08/24 13:35:39;;;;;;;;;;;;;;;;;;5098887;28;20248;-82
2022/08/24 13:38:22;;;;;;;;;;;;;;;;;;5026753;28;19960;-82
2022/08/24 13:40:49;;;;;;;;;;;;;;;;;;5117103;28;19919;-82
2022/08/24 13:43:16;;;;;;;;;;;;;;;;;;5082647;28;19916;-81
2022/08/24 13:45:47;;;;;;;;;;;;;;;;;;5098915;28;19996;-81
2022/08/24 13:48:15;;;;;;;;;;;;;;;;;;5117177;28;19923;-83
2022/08/24 13:50:42;;;;;;;;;;;;;;;;;;5082065;28;19933;-82
2022/08/24 13:53:16;;;;;;;;;;;;;;;;;;5098365;28;19916;-81
2022/08/24 13:55:49;;;;;;;;;;;;;;;;;;5116885;28;19935;-82
2022/08/24 13:58:14;;;;;;;;;;;;;;;;;;5098723;28;19965;-82
2022/08/24 14:00:44;;;;;;;;;;;;;;;;;;5098372;28;20315;-82
2022/08/24 14:03:23;;;;;;;;;;;;;;;;;;5098621;28;20019;-80
2022/08/24 14:05:52;;;;;;;;;;;;;;;;;;5098252;28;20328;-82
2022/08/24 14:08:18;;;;;;;;;;;;;;;;;;5081727;28;19920;-82
2022/08/24 14:10:44;;;;;;;;;;;;;;;;;;5117524;28;19924;-81
2022/08/24 14:13:16;;;;;;;;;;;;;;;;;;5118599;28;19916;-83
2022/08/24 14:17:50;;;;;;;;;;;;;;;;;;5117631;28;19915;-82
2022/08/24 14:18:48;;;;;;;;;;;;;;;;;;5101897;28;19915;-82
2022/08/24 14:21:14;;;;;;;;;;;;;;;;;;5098303;28;19922;-83
2022/08/24 14:23:45;;;;;;;;;;;;;;;;;;5081392;28;19916;-82
2022/08/24 14:26:30;;;;;;;;;;;;;;;;;;5116233;28;20003;-81
2022/08/24 14:29:15;;;;;;;;;;;;;;;;;;5098198;28;19922;-82
2022/08/24 14:32:02;;;;;;;;;;;;;;;;;;5116334;28;19973;-81
2022/08/24 14:34:47;;;;;;;;;;;;;;;;;;5098022;28;19919;-82
2022/08/24 14:37:13;;;;;;;;;;;;;;;;;;5098132;28;19929;-82
2022/08/24 14:39:38;;;;;;;;;;;;;;;;;;5116354;28;19916;-82
2022/08/24 14:42:11;;;;;;;;;;;;;;;;;;5098516;28;20249;-81
2022/08/24 14:44:40;;;;;;;;;;;;;;;;;;5117538;28;19987;-82
2022/08/24 14:47:07;;;;;;;;;;;;;;;;;;5098303;28;20007;-82
2022/08/24 14:49:47;;;;;;;;;;;;;;;;;;5087223;28;19916;-82
2022/08/24 14:52:22;;;;;;;;;;;;;;;;;;5103676;28;19926;-82
2022/08/24 14:55:06;;;;;;;;;;;;;;;;;;5105265;28;19923;-83
2022/08/24 14:57:51;;;;;;;;;;;;;;;;;;5106211;28;19955;-83
2022/08/24 15:00:19;;;;;;;;;;;;;;;;;;5108406;28;19919;-84
2022/08/24 15:02:50;;;;;;;;;;;;;;;;;;5101948;28;19924;-83
2022/08/24 15:05:18;;;;;;;;;;;;;;;;;;5116570;28;19945;-82
2022/08/24 15:07:54;;;;;;;;;;;;;;;;;;5114530;28;19904;-83
2022/08/24 15:10:23;;;;;;;;;;;;;;;;;;5099401;28;19920;-83
2022/08/24 15:12:51;;;;;;;;;;;;;;;;;;5110770;28;19959;-82
2022/08/24 15:15:23;;;;;;;;;;;;;;;;;;5115604;28;19911;-82
2022/08/24 15:17:58;;;;;;;;;;;;;;;;;;5097372;28;19923;-82
2022/08/24 15:20:38;;;;;;;;;;;;;;;;;;5079936;28;19960;-83
2022/08/24 15:23:10;;;;;;;;;;;;;;;;;;5098273;28;19951;-83
2022/08/24 15:25:38;;;;;;;;;;;;;;;;;;5097690;28;20014;-83
2022/08/24 15:28:10;;;;;;;;;;;;;;;;;;5096485;28;19953;-82
2022/08/24 15:30:36;;;;;;;;;;;;;;;;;;5097690;28;19919;-82
2022/08/24 15:33:07;;;;;;;;;;;;;;;;;;5096925;28;19916;-82
2022/08/24 15:35:34;;;;;;;;;;;;;;;;;;5097174;28;19930;-83
2022/08/24 15:38:15;;;;;;;;;;;;;;;;;;5080111;28;19957;-83
2022/08/24 15:40:54;;;;;;;;;;;;;;;;;;5116009;28;19955;-83
2022/08/24 15:43:19;;;;;;;;;;;;;;;;;;5115667;28;20406;-81
2022/08/24 15:45:45;;;;;;;;;;;;;;;;;;5080197;28;19966;-81
2022/08/24 15:48:11;;;;;;;;;;;;;;;;;;5114622;28;19923;-81
2022/08/24 15:50:45;;;;;;;;;;;;;;;;;;5096645;28;19924;-81
2022/08/24 15:53:24;;;;;;;;;;;;;;;;;;5096950;28;20418;-81
2022/08/24 15:55:49;;;;;;;;;;;;;;;;;;5080019;28;20369;-82
2022/08/24 15:58:24;;;;;;;;;;;;;;;;;;5096836;28;19974;-81
2022/08/24 16:03:44;;;;;;;;;;;;;;;;;;5115331;28;19923;-82
2022/08/24 16:06:36;;;;;;;;;;;;;;;;;;5079964;28;19916;-82
2022/08/24 16:09:07;;;;;;;;;;;;;;;;;;5109992;28;20257;-82
2022/08/24 16:11:34;;;;;;;;;;;;;;;;;;5114556;28;19958;-81
2022/08/24 16:13:59;;;;;;;;;;;;;;;;;;5096432;28;19969;-81
2022/08/24 16:16:32;;;;;;;;;;;;;;;;;;5096055;28;19916;-81
2022/08/24 16:18:58;;;;;;;;;;;;;;;;;;5096232;28;19916;-82
2022/08/24 16:21:31;;;;;;;;;;;;;;;;;;5096387;28;19923;-81
2022/08/24 16:24:01;;;;;;;;;;;;;;;;;;5097279;28;20276;-82
2022/08/24 16:26:28;;;;;;;;;;;;;;;;;;5096316;28;19995;-82
2022/08/24 16:28:53;;;;;;;;;;;;;;;;;;5096354;28;19916;-81
2022/08/24 16:31:37;;;;;;;;;;;;;;;;;;5113431;28;20006;-81
2022/08/24 16:34:11;;;;;;;;;;;;;;;;;;5114786;28;20249;-81
2022/08/24 16:36:37;;;;;;;;;;;;;;;;;;5079365;28;19916;-82
2022/08/24 16:39:03;;;;;;;;;;;;;;;;;;5096309;28;19915;-82
2022/08/24 16:41:28;;;;;;;;;;;;;;;;;;5099328;28;19916;-82
2022/08/24 16:43:54;;;;;;;;;;;;;;;;;;5099996;28;19916;-83
2022/08/24 16:46:20;;;;;;;;;;;;;;;;;;5099706;28;19965;-82
2022/08/24 16:48:45;;;;;;;;;;;;;;;;;;5100279;28;19923;-82
2022/08/24 16:51:10;;;;;;;;;;;;;;;;;;5100176;28;20281;-82
2022/08/24 16:53:35;;;;;;;;;;;;;;;;;;5100271;28;20337;-82
2022/08/24 16:56:03;;;;;;;;;;;;;;;;;;5100066;28;19974;-83
2022/08/24 16:58:32;;;;;;;;;;;;;;;;;;5100022;28;20320;-82
2022/08/24 17:00:57;;;;;;;;;;;;;;;;;;5099401;28;19977;-82
2022/08/24 17:03:22;;;;;;;;;;;;;;;;;;5117939;28;19916;-81
2022/08/24 17:05:48;;;;;;;;;;;;;;;;;;5117981;28;20277;-81
2022/08/24 17:08:13;;;;;;;;;;;;;;;;;;5099676;28;20257;-82
2022/08/24 17:10:39;;;;;;;;;;;;;;;;;;5099597;28;19923;-81
2022/08/24 17:13:04;;;;;;;;;;;;;;;;;;5082814;28;19916;-81
2022/08/24 17:15:29;;;;;;;;;;;;;;;;;;5082598;28;19919;-83